sensor_id;sensor_type;location;lat;lon;timestamp;P1;durP1;ratioP1;P2;durP2;ratioP2
11111;SDS011;5609;49.466;8.468;2023-03-18T00:01:13;7.73;;;5.80;;
11111;SDS011;5609;49.466;8.468;2023-03-18T00:03:40;7.50;;;5.40;;
11111;SDS011;5609;49.466;8.468;2023-03-18T00:06:07;6.47;;;5.80;;
11111;SDS011;5609;49.466;8.468;2023-03-18T00:08:35;6.20;;;5.30;;
11111;SDS011;5609;49.466;8.468;2023-03-18T00:11:03;7.80;;;5.33;;
11111;SDS011;5609;49.466;8.468;2023-03-18T00:13:30;6.80;;;5.37;;
11111;SDS011;5609;49.466;8.468;2023-03-18T00:15:59;7.33;;;5.30;;
11111;SDS011;5609;49.466;8.468;2023-03-18T00:18:27;8.03;;;5.83;;
11111;SDS011;5609;49.466;8.468;2023-03-18T00:20:54;7.53;;;5.57;;
11111;SDS011;5609;49.466;8.468;2023-03-18T00:23:22;8.77;;;5.80;;
11111;SDS011;5609;49.466;8.468;2023-03-18T00:25:50;6.73;;;5.67;;
11111;SDS011;5609;49.466;8.468;2023-03-18T00:28:18;6.87;;;5.30;;
11111;SDS011;5609;49.466;8.468;2023-03-18T00:30:45;6.83;;;5.53;;
11111;SDS011;5609;49.466;8.468;2023-03-18T00:33:15;8.33;;;5.63;;
11111;SDS011;5609;49.466;8.468;2023-03-18T00:35:43;6.70;;;5.50;;
11111;SDS011;5609;49.466;8.468;2023-03-18T00:38:10;5.90;;;5.30;;
11111;SDS011;5609;49.466;8.468;2023-03-18T00:40:45;7.00;;;5.77;;
11111;SDS011;5609;49.466;8.468;2023-03-18T00:43:29;9.40;;;5.63;;
11111;SDS011;5609;49.466;8.468;2023-03-18T00:45:59;7.23;;;5.80;;
11111;SDS011;5609;49.466;8.468;2023-03-18T00:48:28;6.77;;;5.70;;
11111;SDS011;5609;49.466;8.468;2023-03-18T00:50:55;7.83;;;5.57;;
11111;SDS011;5609;49.466;8.468;2023-03-18T00:53:22;7.47;;;6.10;;
11111;SDS011;5609;49.466;8.468;2023-03-18T00:55:50;7.77;;;6.00;;
11111;SDS011;5609;49.466;8.468;2023-03-18T00:58:17;7.20;;;5.90;;
11111;SDS011;5609;49.466;8.468;2023-03-18T01:00:44;8.90;;;6.00;;
11111;SDS011;5609;49.466;8.468;2023-03-18T01:03:11;9.43;;;5.90;;
11111;SDS011;5609;49.466;8.468;2023-03-18T01:05:39;8.00;;;5.93;;
11111;SDS011;5609;49.466;8.468;2023-03-18T01:08:08;6.80;;;5.70;;
11111;SDS011;5609;49.466;8.468;2023-03-18T01:10:34;7.40;;;5.70;;
11111;SDS011;5609;49.466;8.468;2023-03-18T01:13:01;7.57;;;5.60;;
11111;SDS011;5609;49.466;8.468;2023-03-18T01:15:28;7.50;;;5.90;;
11111;SDS011;5609;49.466;8.468;2023-03-18T01:17:55;7.90;;;6.10;;
11111;SDS011;5609;49.466;8.468;2023-03-18T01:20:22;8.40;;;6.10;;
11111;SDS011;5609;49.466;8.468;2023-03-18T01:22:51;7.57;;;5.80;;
11111;SDS011;5609;49.466;8.468;2023-03-18T01:25:18;6.80;;;5.60;;
11111;SDS011;5609;49.466;8.468;2023-03-18T01:27:46;8.17;;;6.00;;
11111;SDS011;5609;49.466;8.468;2023-03-18T01:30:13;8.17;;;6.27;;
11111;SDS011;5609;49.466;8.468;2023-03-18T01:32:40;9.20;;;5.77;;
11111;SDS011;5609;49.466;8.468;2023-03-18T01:35:08;7.43;;;5.90;;
11111;SDS011;5609;49.466;8.468;2023-03-18T01:37:36;7.30;;;5.73;;
11111;SDS011;5609;49.466;8.468;2023-03-18T01:40:05;7.53;;;6.17;;
11111;SDS011;5609;49.466;8.468;2023-03-18T01:42:34;6.57;;;5.70;;
11111;SDS011;5609;49.466;8.468;2023-03-18T01:45:12;6.83;;;5.57;;
11111;SDS011;5609;49.466;8.468;2023-03-18T01:47:43;7.63;;;5.70;;
11111;SDS011;5609;49.466;8.468;2023-03-18T01:50:11;10.33;;;6.20;;
11111;SDS011;5609;49.466;8.468;2023-03-18T01:52:40;8.37;;;5.97;;
11111;SDS011;5609;49.466;8.468;2023-03-18T01:55:10;7.70;;;6.07;;
11111;SDS011;5609;49.466;8.468;2023-03-18T01:57:39;8.23;;;5.97;;
11111;SDS011;5609;49.466;8.468;2023-03-18T02:00:08;8.17;;;6.77;;
11111;SDS011;5609;49.466;8.468;2023-03-18T02:02:37;8.17;;;6.67;;
11111;SDS011;5609;49.466;8.468;2023-03-18T02:05:05;8.50;;;6.83;;
11111;SDS011;5609;49.466;8.468;2023-03-18T02:07:35;7.60;;;6.20;;
11111;SDS011;5609;49.466;8.468;2023-03-18T02:10:04;9.57;;;7.00;;
11111;SDS011;5609;49.466;8.468;2023-03-18T02:12:37;9.13;;;6.50;;
11111;SDS011;5609;49.466;8.468;2023-03-18T02:15:08;7.47;;;6.40;;
11111;SDS011;5609;49.466;8.468;2023-03-18T02:17:39;10.40;;;7.57;;
11111;SDS011;5609;49.466;8.468;2023-03-18T02:20:09;9.53;;;7.43;;
11111;SDS011;5609;49.466;8.468;2023-03-18T02:22:46;9.30;;;7.53;;
11111;SDS011;5609;49.466;8.468;2023-03-18T02:25:19;8.87;;;6.53;;
11111;SDS011;5609;49.466;8.468;2023-03-18T02:27:54;8.63;;;6.93;;
11111;SDS011;5609;49.466;8.468;2023-03-18T02:30:25;7.67;;;6.47;;
11111;SDS011;5609;49.466;8.468;2023-03-18T02:32:55;9.20;;;7.00;;
11111;SDS011;5609;49.466;8.468;2023-03-18T02:35:24;9.80;;;7.07;;
11111;SDS011;5609;49.466;8.468;2023-03-18T02:37:52;7.50;;;6.70;;
11111;SDS011;5609;49.466;8.468;2023-03-18T02:40:20;9.23;;;6.80;;
11111;SDS011;5609;49.466;8.468;2023-03-18T02:42:49;7.97;;;6.33;;
11111;SDS011;5609;49.466;8.468;2023-03-18T02:45:22;6.93;;;5.80;;
11111;SDS011;5609;49.466;8.468;2023-03-18T02:48:00;7.30;;;6.00;;
11111;SDS011;5609;49.466;8.468;2023-03-18T02:50:30;7.10;;;5.67;;
11111;SDS011;5609;49.466;8.468;2023-03-18T02:52:59;6.50;;;5.87;;
11111;SDS011;5609;49.466;8.468;2023-03-18T02:55:27;7.87;;;5.87;;
11111;SDS011;5609;49.466;8.468;2023-03-18T02:57:54;6.37;;;5.40;;
11111;SDS011;5609;49.466;8.468;2023-03-18T03:00:22;7.53;;;5.73;;
11111;SDS011;5609;49.466;8.468;2023-03-18T03:02:49;7.77;;;5.70;;
11111;SDS011;5609;49.466;8.468;2023-03-18T03:05:17;8.37;;;5.77;;
11111;SDS011;5609;49.466;8.468;2023-03-18T03:07:44;7.50;;;5.60;;
11111;SDS011;5609;49.466;8.468;2023-03-18T03:10:11;8.20;;;5.87;;
11111;SDS011;5609;49.466;8.468;2023-03-18T03:12:38;7.43;;;5.80;;
11111;SDS011;5609;49.466;8.468;2023-03-18T03:15:06;6.43;;;5.50;;
11111;SDS011;5609;49.466;8.468;2023-03-18T03:17:35;9.33;;;5.67;;
11111;SDS011;5609;49.466;8.468;2023-03-18T03:20:03;7.93;;;5.67;;
11111;SDS011;5609;49.466;8.468;2023-03-18T03:22:31;7.53;;;5.40;;
11111;SDS011;5609;49.466;8.468;2023-03-18T03:24:58;7.03;;;5.50;;
11111;SDS011;5609;49.466;8.468;2023-03-18T03:27:25;7.43;;;5.10;;
11111;SDS011;5609;49.466;8.468;2023-03-18T03:29:52;6.10;;;5.00;;
11111;SDS011;5609;49.466;8.468;2023-03-18T03:32:19;6.33;;;5.03;;
11111;SDS011;5609;49.466;8.468;2023-03-18T03:34:48;8.13;;;5.37;;
11111;SDS011;5609;49.466;8.468;2023-03-18T03:37:15;7.60;;;5.30;;
11111;SDS011;5609;49.466;8.468;2023-03-18T03:39:42;6.83;;;5.50;;
11111;SDS011;5609;49.466;8.468;2023-03-18T03:42:08;8.90;;;5.40;;
11111;SDS011;5609;49.466;8.468;2023-03-18T03:44:35;5.97;;;5.37;;
11111;SDS011;5609;49.466;8.468;2023-03-18T03:47:02;7.67;;;5.53;;
11111;SDS011;5609;49.466;8.468;2023-03-18T03:49:30;8.40;;;5.63;;
11111;SDS011;5609;49.466;8.468;2023-03-18T03:51:58;8.17;;;5.70;;
11111;SDS011;5609;49.466;8.468;2023-03-18T03:54:25;6.40;;;5.10;;
11111;SDS011;5609;49.466;8.468;2023-03-18T03:56:52;8.13;;;5.60;;
11111;SDS011;5609;49.466;8.468;2023-03-18T03:59:19;7.03;;;5.20;;
11111;SDS011;5609;49.466;8.468;2023-03-18T04:01:45;9.03;;;5.33;;
11111;SDS011;5609;49.466;8.468;2023-03-18T04:04:12;8.93;;;5.50;;
11111;SDS011;5609;49.466;8.468;2023-03-18T04:06:40;7.63;;;5.30;;
11111;SDS011;5609;49.466;8.468;2023-03-18T04:09:08;6.90;;;5.50;;
11111;SDS011;5609;49.466;8.468;2023-03-18T04:11:35;5.73;;;4.47;;
11111;SDS011;5609;49.466;8.468;2023-03-18T04:14:01;7.10;;;4.90;;
11111;SDS011;5609;49.466;8.468;2023-03-18T04:16:28;7.30;;;4.63;;
11111;SDS011;5609;49.466;8.468;2023-03-18T04:18:55;7.83;;;4.60;;
11111;SDS011;5609;49.466;8.468;2023-03-18T04:21:21;6.33;;;4.50;;
11111;SDS011;5609;49.466;8.468;2023-03-18T04:23:48;6.03;;;4.40;;
11111;SDS011;5609;49.466;8.468;2023-03-18T04:26:17;6.90;;;4.53;;
11111;SDS011;5609;49.466;8.468;2023-03-18T04:28:43;7.83;;;4.53;;
11111;SDS011;5609;49.466;8.468;2023-03-18T04:31:11;7.00;;;4.50;;
11111;SDS011;5609;49.466;8.468;2023-03-18T04:33:38;5.00;;;4.17;;
11111;SDS011;5609;49.466;8.468;2023-03-18T04:36:06;5.93;;;4.17;;
11111;SDS011;5609;49.466;8.468;2023-03-18T04:38:33;6.23;;;4.20;;
11111;SDS011;5609;49.466;8.468;2023-03-18T04:41:00;5.63;;;4.30;;
11111;SDS011;5609;49.466;8.468;2023-03-18T04:43:28;5.00;;;4.10;;
11111;SDS011;5609;49.466;8.468;2023-03-18T04:45:55;4.63;;;3.90;;
11111;SDS011;5609;49.466;8.468;2023-03-18T04:48:22;6.13;;;4.50;;
11111;SDS011;5609;49.466;8.468;2023-03-18T04:50:49;5.43;;;3.97;;
11111;SDS011;5609;49.466;8.468;2023-03-18T04:53:15;6.00;;;4.17;;
11111;SDS011;5609;49.466;8.468;2023-03-18T04:55:42;5.17;;;3.73;;
11111;SDS011;5609;49.466;8.468;2023-03-18T04:58:09;7.00;;;4.23;;
11111;SDS011;5609;49.466;8.468;2023-03-18T05:00:37;5.83;;;3.97;;
11111;SDS011;5609;49.466;8.468;2023-03-18T05:03:04;5.53;;;3.93;;
11111;SDS011;5609;49.466;8.468;2023-03-18T05:05:31;5.80;;;3.90;;
11111;SDS011;5609;49.466;8.468;2023-03-18T05:07:58;6.53;;;3.97;;
11111;SDS011;5609;49.466;8.468;2023-03-18T05:10:24;5.37;;;4.00;;
11111;SDS011;5609;49.466;8.468;2023-03-18T05:12:51;4.60;;;3.80;;
11111;SDS011;5609;49.466;8.468;2023-03-18T05:15:18;4.77;;;3.70;;
11111;SDS011;5609;49.466;8.468;2023-03-18T05:17:46;4.13;;;3.70;;
11111;SDS011;5609;49.466;8.468;2023-03-18T05:20:13;4.43;;;3.77;;
11111;SDS011;5609;49.466;8.468;2023-03-18T05:22:39;4.27;;;3.63;;
11111;SDS011;5609;49.466;8.468;2023-03-18T05:25:06;5.37;;;4.13;;
11111;SDS011;5609;49.466;8.468;2023-03-18T05:27:35;3.93;;;3.53;;
11111;SDS011;5609;49.466;8.468;2023-03-18T05:30:02;5.13;;;3.90;;
11111;SDS011;5609;49.466;8.468;2023-03-18T05:32:30;5.27;;;3.43;;
11111;SDS011;5609;49.466;8.468;2023-03-18T05:34:58;5.30;;;4.03;;
11111;SDS011;5609;49.466;8.468;2023-03-18T05:37:25;4.33;;;3.70;;
11111;SDS011;5609;49.466;8.468;2023-03-18T05:39:52;4.23;;;3.50;;
11111;SDS011;5609;49.466;8.468;2023-03-18T05:42:19;4.23;;;3.50;;
11111;SDS011;5609;49.466;8.468;2023-03-18T05:44:45;4.63;;;3.67;;
11111;SDS011;5609;49.466;8.468;2023-03-18T05:47:13;4.97;;;3.27;;
11111;SDS011;5609;49.466;8.468;2023-03-18T05:49:40;6.27;;;3.60;;
11111;SDS011;5609;49.466;8.468;2023-03-18T05:52:08;5.57;;;3.57;;
11111;SDS011;5609;49.466;8.468;2023-03-18T05:54:35;6.10;;;3.50;;
11111;SDS011;5609;49.466;8.468;2023-03-18T05:57:02;3.90;;;3.50;;
11111;SDS011;5609;49.466;8.468;2023-03-18T05:59:29;5.00;;;3.57;;
11111;SDS011;5609;49.466;8.468;2023-03-18T06:01:56;5.30;;;3.80;;
11111;SDS011;5609;49.466;8.468;2023-03-18T06:04:23;5.00;;;3.40;;
11111;SDS011;5609;49.466;8.468;2023-03-18T06:06:51;3.80;;;3.40;;
11111;SDS011;5609;49.466;8.468;2023-03-18T06:09:20;5.70;;;3.47;;
11111;SDS011;5609;49.466;8.468;2023-03-18T06:11:47;6.10;;;3.50;;
11111;SDS011;5609;49.466;8.468;2023-03-18T06:14:14;6.10;;;3.53;;
11111;SDS011;5609;49.466;8.468;2023-03-18T06:16:41;6.07;;;3.50;;
11111;SDS011;5609;49.466;8.468;2023-03-18T06:19:08;4.07;;;3.23;;
11111;SDS011;5609;49.466;8.468;2023-03-18T06:21:36;4.17;;;3.43;;
11111;SDS011;5609;49.466;8.468;2023-03-18T06:24:03;4.53;;;3.07;;
11111;SDS011;5609;49.466;8.468;2023-03-18T06:26:33;3.80;;;3.40;;
11111;SDS011;5609;49.466;8.468;2023-03-18T06:29:00;5.47;;;3.20;;
11111;SDS011;5609;49.466;8.468;2023-03-18T06:31:28;4.27;;;3.47;;
11111;SDS011;5609;49.466;8.468;2023-03-18T06:33:55;4.67;;;3.27;;
11111;SDS011;5609;49.466;8.468;2023-03-18T06:36:22;4.10;;;2.97;;
11111;SDS011;5609;49.466;8.468;2023-03-18T06:38:48;3.73;;;3.33;;
11111;SDS011;5609;49.466;8.468;2023-03-18T06:41:16;4.57;;;3.03;;
11111;SDS011;5609;49.466;8.468;2023-03-18T06:43:44;4.03;;;3.27;;
11111;SDS011;5609;49.466;8.468;2023-03-18T06:46:14;3.37;;;2.63;;
11111;SDS011;5609;49.466;8.468;2023-03-18T06:48:41;4.00;;;3.00;;
11111;SDS011;5609;49.466;8.468;2023-03-18T06:51:08;3.73;;;3.00;;
11111;SDS011;5609;49.466;8.468;2023-03-18T06:53:35;4.10;;;3.10;;
11111;SDS011;5609;49.466;8.468;2023-03-18T06:56:02;3.87;;;3.20;;
11111;SDS011;5609;49.466;8.468;2023-03-18T06:58:30;4.33;;;3.00;;
11111;SDS011;5609;49.466;8.468;2023-03-18T07:00:58;3.67;;;2.83;;
11111;SDS011;5609;49.466;8.468;2023-03-18T07:03:25;5.37;;;3.10;;
11111;SDS011;5609;49.466;8.468;2023-03-18T07:05:53;5.87;;;3.27;;
11111;SDS011;5609;49.466;8.468;2023-03-18T07:08:20;3.63;;;2.83;;
11111;SDS011;5609;49.466;8.468;2023-03-18T07:10:46;4.23;;;2.50;;
11111;SDS011;5609;49.466;8.468;2023-03-18T07:13:13;4.17;;;2.93;;
11111;SDS011;5609;49.466;8.468;2023-03-18T07:15:40;3.00;;;2.70;;
11111;SDS011;5609;49.466;8.468;2023-03-18T07:18:08;4.67;;;3.20;;
11111;SDS011;5609;49.466;8.468;2023-03-18T07:20:36;5.73;;;2.83;;
11111;SDS011;5609;49.466;8.468;2023-03-18T07:23:02;4.03;;;2.83;;
11111;SDS011;5609;49.466;8.468;2023-03-18T07:25:29;5.77;;;2.70;;
11111;SDS011;5609;49.466;8.468;2023-03-18T07:27:57;4.13;;;2.80;;
11111;SDS011;5609;49.466;8.468;2023-03-18T07:30:24;3.00;;;2.70;;
11111;SDS011;5609;49.466;8.468;2023-03-18T07:32:51;5.50;;;2.77;;
11111;SDS011;5609;49.466;8.468;2023-03-18T07:35:20;3.93;;;2.67;;
11111;SDS011;5609;49.466;8.468;2023-03-18T07:37:47;3.80;;;2.50;;
11111;SDS011;5609;49.466;8.468;2023-03-18T07:40:14;2.70;;;2.30;;
11111;SDS011;5609;49.466;8.468;2023-03-18T07:42:41;2.93;;;2.50;;
11111;SDS011;5609;49.466;8.468;2023-03-18T07:45:08;4.73;;;2.47;;
11111;SDS011;5609;49.466;8.468;2023-03-18T07:47:35;4.67;;;2.70;;
11111;SDS011;5609;49.466;8.468;2023-03-18T07:50:03;3.70;;;2.50;;
11111;SDS011;5609;49.466;8.468;2023-03-18T07:52:32;4.27;;;2.30;;
11111;SDS011;5609;49.466;8.468;2023-03-18T07:54:59;4.30;;;2.23;;
11111;SDS011;5609;49.466;8.468;2023-03-18T07:57:26;3.60;;;2.13;;
11111;SDS011;5609;49.466;8.468;2023-03-18T07:59:53;3.63;;;2.23;;
11111;SDS011;5609;49.466;8.468;2023-03-18T08:02:20;3.77;;;2.30;;
11111;SDS011;5609;49.466;8.468;2023-03-18T08:04:47;3.30;;;2.00;;
11111;SDS011;5609;49.466;8.468;2023-03-18T08:07:15;3.20;;;2.00;;
11111;SDS011;5609;49.466;8.468;2023-03-18T08:09:44;5.80;;;2.23;;
11111;SDS011;5609;49.466;8.468;2023-03-18T08:12:10;4.17;;;2.07;;
11111;SDS011;5609;49.466;8.468;2023-03-18T08:14:37;3.77;;;1.97;;
11111;SDS011;5609;49.466;8.468;2023-03-18T08:17:04;3.20;;;2.00;;
11111;SDS011;5609;49.466;8.468;2023-03-18T08:19:31;2.70;;;1.83;;
11111;SDS011;5609;49.466;8.468;2023-03-18T08:21:57;2.77;;;1.90;;
11111;SDS011;5609;49.466;8.468;2023-03-18T08:24:24;4.40;;;1.83;;
11111;SDS011;5609;49.466;8.468;2023-03-18T08:26:52;2.77;;;1.90;;
11111;SDS011;5609;49.466;8.468;2023-03-18T08:29:19;3.50;;;1.77;;
11111;SDS011;5609;49.466;8.468;2023-03-18T08:31:46;2.73;;;1.70;;
11111;SDS011;5609;49.466;8.468;2023-03-18T08:34:13;2.83;;;1.67;;
11111;SDS011;5609;49.466;8.468;2023-03-18T08:36:39;4.83;;;1.90;;
11111;SDS011;5609;49.466;8.468;2023-03-18T08:39:07;3.60;;;1.93;;
11111;SDS011;5609;49.466;8.468;2023-03-18T08:41:35;4.33;;;2.03;;
11111;SDS011;5609;49.466;8.468;2023-03-18T08:44:03;3.47;;;2.10;;
11111;SDS011;5609;49.466;8.468;2023-03-18T08:46:32;5.00;;;2.00;;
11111;SDS011;5609;49.466;8.468;2023-03-18T08:48:59;4.00;;;2.17;;
11111;SDS011;5609;49.466;8.468;2023-03-18T08:51:26;3.03;;;1.80;;
11111;SDS011;5609;49.466;8.468;2023-03-18T08:53:53;2.40;;;1.80;;
11111;SDS011;5609;49.466;8.468;2023-03-18T08:56:20;1.93;;;1.73;;
11111;SDS011;5609;49.466;8.468;2023-03-18T08:58:47;2.93;;;2.07;;
11111;SDS011;5609;49.466;8.468;2023-03-18T09:01:16;2.00;;;1.80;;
11111;SDS011;5609;49.466;8.468;2023-03-18T09:03:46;3.47;;;1.93;;
11111;SDS011;5609;49.466;8.468;2023-03-18T09:06:12;2.40;;;1.90;;
11111;SDS011;5609;49.466;8.468;2023-03-18T09:08:39;2.57;;;2.10;;
11111;SDS011;5609;49.466;8.468;2023-03-18T09:11:06;3.77;;;2.03;;
11111;SDS011;5609;49.466;8.468;2023-03-18T09:13:33;3.50;;;2.00;;
11111;SDS011;5609;49.466;8.468;2023-03-18T09:16:00;2.20;;;1.90;;
11111;SDS011;5609;49.466;8.468;2023-03-18T09:18:29;3.00;;;1.90;;
11111;SDS011;5609;49.466;8.468;2023-03-18T09:20:56;4.03;;;1.97;;
11111;SDS011;5609;49.466;8.468;2023-03-18T09:23:23;5.00;;;1.90;;
11111;SDS011;5609;49.466;8.468;2023-03-18T09:25:51;3.77;;;2.07;;
11111;SDS011;5609;49.466;8.468;2023-03-18T09:28:21;4.17;;;2.10;;
11111;SDS011;5609;49.466;8.468;2023-03-18T09:30:48;2.17;;;1.83;;
11111;SDS011;5609;49.466;8.468;2023-03-18T09:33:15;3.90;;;2.00;;
11111;SDS011;5609;49.466;8.468;2023-03-18T09:35:43;3.80;;;2.20;;
11111;SDS011;5609;49.466;8.468;2023-03-18T09:38:10;4.60;;;1.93;;
11111;SDS011;5609;49.466;8.468;2023-03-18T09:40:42;5.90;;;2.13;;
11111;SDS011;5609;49.466;8.468;2023-03-18T09:43:20;2.93;;;1.80;;
11111;SDS011;5609;49.466;8.468;2023-03-18T09:46:11;2.00;;;1.60;;
11111;SDS011;5609;49.466;8.468;2023-03-18T09:51:46;2.90;;;1.53;;
11111;SDS011;5609;49.466;8.468;2023-03-18T09:54:23;2.40;;;1.80;;
11111;SDS011;5609;49.466;8.468;2023-03-18T09:56:58;2.93;;;1.87;;
11111;SDS011;5609;49.466;8.468;2023-03-18T09:59:28;2.70;;;1.77;;
11111;SDS011;5609;49.466;8.468;2023-03-18T10:02:02;5.03;;;1.90;;
11111;SDS011;5609;49.466;8.468;2023-03-18T10:04:39;4.10;;;1.80;;
11111;SDS011;5609;49.466;8.468;2023-03-18T10:07:12;4.20;;;1.97;;
11111;SDS011;5609;49.466;8.468;2023-03-18T10:09:43;3.67;;;1.70;;
11111;SDS011;5609;49.466;8.468;2023-03-18T10:12:14;2.07;;;1.57;;
11111;SDS011;5609;49.466;8.468;2023-03-18T10:14:44;2.83;;;1.67;;
11111;SDS011;5609;49.466;8.468;2023-03-18T10:17:16;3.03;;;1.70;;
11111;SDS011;5609;49.466;8.468;2023-03-18T10:19:47;4.60;;;1.77;;
11111;SDS011;5609;49.466;8.468;2023-03-18T10:22:25;3.90;;;1.70;;
11111;SDS011;5609;49.466;8.468;2023-03-18T10:25:24;2.53;;;1.60;;
11111;SDS011;5609;49.466;8.468;2023-03-18T10:28:03;2.97;;;1.80;;
11111;SDS011;5609;49.466;8.468;2023-03-18T10:30:46;2.60;;;1.90;;
11111;SDS011;5609;49.466;8.468;2023-03-18T10:33:21;5.13;;;1.87;;
11111;SDS011;5609;49.466;8.468;2023-03-18T10:35:58;2.23;;;1.70;;
11111;SDS011;5609;49.466;8.468;2023-03-18T10:38:33;2.77;;;1.57;;
11111;SDS011;5609;49.466;8.468;2023-03-18T10:41:03;3.47;;;1.60;;
11111;SDS011;5609;49.466;8.468;2023-03-18T10:43:40;2.63;;;1.80;;
11111;SDS011;5609;49.466;8.468;2023-03-18T10:46:07;3.10;;;1.50;;
11111;SDS011;5609;49.466;8.468;2023-03-18T10:48:40;3.97;;;1.70;;
11111;SDS011;5609;49.466;8.468;2023-03-18T10:51:11;4.00;;;1.80;;
11111;SDS011;5609;49.466;8.468;2023-03-18T10:53:45;3.17;;;1.73;;
11111;SDS011;5609;49.466;8.468;2023-03-18T10:56:17;2.97;;;1.60;;
11111;SDS011;5609;49.466;8.468;2023-03-18T10:58:45;2.93;;;1.70;;
11111;SDS011;5609;49.466;8.468;2023-03-18T11:01:13;3.27;;;1.70;;
11111;SDS011;5609;49.466;8.468;2023-03-18T11:03:42;2.10;;;1.40;;
11111;SDS011;5609;49.466;8.468;2023-03-18T11:06:14;3.57;;;1.50;;
11111;SDS011;5609;49.466;8.468;2023-03-18T11:08:45;2.63;;;1.60;;
11111;SDS011;5609;49.466;8.468;2023-03-18T11:11:14;2.10;;;1.60;;
11111;SDS011;5609;49.466;8.468;2023-03-18T11:13:48;2.63;;;1.40;;
11111;SDS011;5609;49.466;8.468;2023-03-18T11:16:22;2.67;;;1.30;;
11111;SDS011;5609;49.466;8.468;2023-03-18T11:18:54;2.60;;;1.60;;
11111;SDS011;5609;49.466;8.468;2023-03-18T11:21:22;3.73;;;1.70;;
11111;SDS011;5609;49.466;8.468;2023-03-18T11:23:53;2.10;;;1.30;;
11111;SDS011;5609;49.466;8.468;2023-03-18T11:26:42;2.20;;;1.20;;
11111;SDS011;5609;49.466;8.468;2023-03-18T11:29:11;2.23;;;1.50;;
11111;SDS011;5609;49.466;8.468;2023-03-18T11:31:46;2.23;;;1.23;;
11111;SDS011;5609;49.466;8.468;2023-03-18T11:34:15;2.33;;;1.60;;
11111;SDS011;5609;49.466;8.468;2023-03-18T11:36:43;3.50;;;1.70;;
11111;SDS011;5609;49.466;8.468;2023-03-18T11:39:20;3.47;;;1.50;;
11111;SDS011;5609;49.466;8.468;2023-03-18T11:41:50;2.93;;;1.40;;
11111;SDS011;5609;49.466;8.468;2023-03-18T11:44:22;2.80;;;1.40;;
11111;SDS011;5609;49.466;8.468;2023-03-18T11:46:53;3.33;;;1.57;;
11111;SDS011;5609;49.466;8.468;2023-03-18T11:49:23;2.97;;;1.50;;
11111;SDS011;5609;49.466;8.468;2023-03-18T11:51:53;2.23;;;1.50;;
11111;SDS011;5609;49.466;8.468;2023-03-18T11:54:38;3.47;;;1.70;;
11111;SDS011;5609;49.466;8.468;2023-03-18T11:57:15;2.90;;;1.60;;
11111;SDS011;5609;49.466;8.468;2023-03-18T11:59:48;3.80;;;1.60;;
11111;SDS011;5609;49.466;8.468;2023-03-18T12:02:29;2.43;;;1.47;;
11111;SDS011;5609;49.466;8.468;2023-03-18T12:05:13;3.17;;;1.57;;
11111;SDS011;5609;49.466;8.468;2023-03-18T12:08:02;3.20;;;1.60;;
11111;SDS011;5609;49.466;8.468;2023-03-18T12:10:38;4.10;;;1.60;;
11111;SDS011;5609;49.466;8.468;2023-03-18T12:13:15;2.13;;;1.33;;
11111;SDS011;5609;49.466;8.468;2023-03-18T12:15:58;2.70;;;1.53;;
11111;SDS011;5609;49.466;8.468;2023-03-18T12:18:42;2.80;;;1.57;;
11111;SDS011;5609;49.466;8.468;2023-03-18T12:24:25;3.63;;;1.53;;
11111;SDS011;5609;49.466;8.468;2023-03-18T12:27:05;4.00;;;1.50;;
11111;SDS011;5609;49.466;8.468;2023-03-18T12:32:28;2.47;;;1.60;;
11111;SDS011;5609;49.466;8.468;2023-03-18T12:35:00;1.77;;;1.27;;
11111;SDS011;5609;49.466;8.468;2023-03-18T12:37:37;3.00;;;1.50;;
11111;SDS011;5609;49.466;8.468;2023-03-18T12:43:11;3.87;;;1.40;;
11111;SDS011;5609;49.466;8.468;2023-03-18T12:46:02;1.90;;;1.40;;
11111;SDS011;5609;49.466;8.468;2023-03-18T12:48:34;2.90;;;1.70;;
11111;SDS011;5609;49.466;8.468;2023-03-18T12:51:08;2.90;;;1.30;;
11111;SDS011;5609;49.466;8.468;2023-03-18T12:53:39;2.00;;;1.47;;
11111;SDS011;5609;49.466;8.468;2023-03-18T12:56:10;4.07;;;1.50;;
11111;SDS011;5609;49.466;8.468;2023-03-18T12:58:42;5.30;;;1.47;;
11111;SDS011;5609;49.466;8.468;2023-03-18T13:01:14;2.57;;;1.57;;
11111;SDS011;5609;49.466;8.468;2023-03-18T13:03:44;4.13;;;1.50;;
11111;SDS011;5609;49.466;8.468;2023-03-18T13:06:16;3.63;;;1.57;;
11111;SDS011;5609;49.466;8.468;2023-03-18T13:08:53;2.87;;;1.63;;
11111;SDS011;5609;49.466;8.468;2023-03-18T13:11:30;3.40;;;1.70;;
11111;SDS011;5609;49.466;8.468;2023-03-18T13:14:20;3.67;;;1.60;;
11111;SDS011;5609;49.466;8.468;2023-03-18T13:16:52;3.03;;;1.43;;
11111;SDS011;5609;49.466;8.468;2023-03-18T13:19:22;2.53;;;1.60;;
11111;SDS011;5609;49.466;8.468;2023-03-18T13:21:50;3.03;;;1.50;;
11111;SDS011;5609;49.466;8.468;2023-03-18T13:27:17;2.90;;;1.50;;
11111;SDS011;5609;49.466;8.468;2023-03-18T13:30:11;4.03;;;1.67;;
11111;SDS011;5609;49.466;8.468;2023-03-18T13:32:53;3.00;;;1.70;;
11111;SDS011;5609;49.466;8.468;2023-03-18T13:35:38;3.17;;;1.70;;
11111;SDS011;5609;49.466;8.468;2023-03-18T13:41:38;2.40;;;1.60;;
11111;SDS011;5609;49.466;8.468;2023-03-18T13:44:16;4.60;;;1.80;;
11111;SDS011;5609;49.466;8.468;2023-03-18T13:46:53;2.93;;;1.60;;
11111;SDS011;5609;49.466;8.468;2023-03-18T13:49:25;3.07;;;1.67;;
11111;SDS011;5609;49.466;8.468;2023-03-18T13:51:55;2.93;;;1.70;;
11111;SDS011;5609;49.466;8.468;2023-03-18T13:54:27;2.93;;;1.60;;
11111;SDS011;5609;49.466;8.468;2023-03-18T13:57:14;3.10;;;1.53;;
11111;SDS011;5609;49.466;8.468;2023-03-18T13:59:43;3.30;;;1.50;;
11111;SDS011;5609;49.466;8.468;2023-03-18T14:02:32;3.07;;;1.60;;
11111;SDS011;5609;49.466;8.468;2023-03-18T14:08:00;2.63;;;1.50;;
11111;SDS011;5609;49.466;8.468;2023-03-18T14:10:30;4.17;;;1.50;;
11111;SDS011;5609;49.466;8.468;2023-03-18T14:13:01;4.33;;;1.70;;
11111;SDS011;5609;49.466;8.468;2023-03-18T14:15:52;3.40;;;1.60;;
11111;SDS011;5609;49.466;8.468;2023-03-18T14:18:26;2.67;;;1.60;;
11111;SDS011;5609;49.466;8.468;2023-03-18T14:21:01;2.33;;;1.50;;
11111;SDS011;5609;49.466;8.468;2023-03-18T14:23:33;4.20;;;1.67;;
11111;SDS011;5609;49.466;8.468;2023-03-18T14:26:04;3.87;;;1.57;;
11111;SDS011;5609;49.466;8.468;2023-03-18T14:28:47;2.17;;;1.60;;
11111;SDS011;5609;49.466;8.468;2023-03-18T14:31:20;3.30;;;1.70;;
11111;SDS011;5609;49.466;8.468;2023-03-18T14:34:00;3.70;;;1.50;;
11111;SDS011;5609;49.466;8.468;2023-03-18T14:37:04;4.63;;;1.70;;
11111;SDS011;5609;49.466;8.468;2023-03-18T14:39:44;2.33;;;1.60;;
11111;SDS011;5609;49.466;8.468;2023-03-18T14:42:15;6.80;;;2.00;;
11111;SDS011;5609;49.466;8.468;2023-03-18T14:44:53;2.67;;;1.43;;
11111;SDS011;5609;49.466;8.468;2023-03-18T14:47:24;3.03;;;1.50;;
11111;SDS011;5609;49.466;8.468;2023-03-18T14:49:59;2.30;;;1.50;;
11111;SDS011;5609;49.466;8.468;2023-03-18T14:52:30;2.20;;;1.80;;
11111;SDS011;5609;49.466;8.468;2023-03-18T14:55:01;3.57;;;1.70;;
11111;SDS011;5609;49.466;8.468;2023-03-18T14:57:32;2.30;;;1.40;;
11111;SDS011;5609;49.466;8.468;2023-03-18T14:59:59;2.07;;;1.50;;
11111;SDS011;5609;49.466;8.468;2023-03-18T15:02:31;1.90;;;1.60;;
11111;SDS011;5609;49.466;8.468;2023-03-18T15:05:00;3.00;;;1.50;;
11111;SDS011;5609;49.466;8.468;2023-03-18T15:07:32;2.50;;;1.50;;
11111;SDS011;5609;49.466;8.468;2023-03-18T15:10:01;2.23;;;1.70;;
11111;SDS011;5609;49.466;8.468;2023-03-18T15:12:29;3.00;;;1.70;;
11111;SDS011;5609;49.466;8.468;2023-03-18T15:14:57;2.07;;;1.53;;
11111;SDS011;5609;49.466;8.468;2023-03-18T15:17:24;3.13;;;1.43;;
11111;SDS011;5609;49.466;8.468;2023-03-18T15:19:54;3.87;;;1.70;;
11111;SDS011;5609;49.466;8.468;2023-03-18T15:22:23;2.80;;;1.60;;
11111;SDS011;5609;49.466;8.468;2023-03-18T15:24:56;1.80;;;1.40;;
11111;SDS011;5609;49.466;8.468;2023-03-18T15:27:25;1.90;;;1.40;;
11111;SDS011;5609;49.466;8.468;2023-03-18T15:29:54;3.27;;;1.60;;
11111;SDS011;5609;49.466;8.468;2023-03-18T15:32:22;2.67;;;1.50;;
11111;SDS011;5609;49.466;8.468;2023-03-18T15:34:53;2.70;;;1.40;;
11111;SDS011;5609;49.466;8.468;2023-03-18T15:37:24;2.47;;;1.30;;
11111;SDS011;5609;49.466;8.468;2023-03-18T15:40:14;1.93;;;1.37;;